OPRN/ISB METAR and TAF weather

Enter ICAO airport designator
Station Type Date Time Source
OPRN METAR 2019/08/08 21:00 UTC NOAA

OPRN 082100Z 13008KT 4000 HZ SCT100 BKN200 31/26 Q0994 NOSIG


Station Type Date Time Source
OPRN Decoded METAR 2019/08/08 21:00 UTC NOAA

Islamabad Airport, Pakistan (OPRN) 33-37N 073-06E 508M
Aug 08, 2019 - 05:00 PM EDT / 2019.08.08 2100 UTC
Wind: from the SE (130 degrees) at 9 MPH (8 KT):0
Visibility: 2 mile(s):0
Sky conditions: mostly cloudy
Weather: haze
Temperature: 87 F (31 C)
Heat index: 99.7 F (37.6 C):1
Dew Point: 78 F (26 C)
Relative Humidity: 74%
Pressure (altimeter): 29.35 in. Hg (0994 hPa)
ob: OPRN 082100Z 13008KT 4000 HZ SCT100 BKN200 31/26 Q0994 NOSIG
cycle: 21

Station Type Date Time Source
OPRN TAF 2019/05/15 18:06 UTC NOAA

TAF OPRN 151530Z 1518/1624 13010KT 7000 SCT040 SCT100
TEMPO 1518/1521 13010G25KT 5000 VCTS FEW030TCU/CB SCT040 BKN100
BECMG 1603/1605 23010KT 9999 FEW040

Example: see airport list